sensor_id;sensor_type;location;lat;lon;timestamp;P1;durP1;ratioP1;P2;durP2;ratioP2
71296;SDS011;59082;50.658;4.608;2023-05-16T04:36:10;7.50;;;2.97;;
71296;SDS011;59082;50.658;4.608;2023-05-16T04:38:36;14.68;;;2.95;;
71296;SDS011;59082;50.658;4.608;2023-05-16T04:41:01;12.23;;;3.67;;
71296;SDS011;59082;50.658;4.608;2023-05-16T04:43:28;7.13;;;2.70;;
71296;SDS011;59082;50.658;4.608;2023-05-16T04:45:53;9.73;;;3.40;;
71296;SDS011;59082;50.658;4.608;2023-05-16T04:48:19;11.40;;;2.60;;
71296;SDS011;59082;50.658;4.608;2023-05-16T04:50:44;9.03;;;4.00;;
71296;SDS011;59082;50.658;4.608;2023-05-16T04:53:10;9.83;;;3.10;;
71296;SDS011;59082;50.658;4.608;2023-05-16T04:55:35;13.13;;;2.37;;
71296;SDS011;59082;50.658;4.608;2023-05-16T04:58:01;6.93;;;2.78;;
71296;SDS011;59082;50.658;4.608;2023-05-16T05:00:26;9.70;;;3.47;;
71296;SDS011;59082;50.658;4.608;2023-05-16T05:03:02;7.97;;;3.27;;
71296;SDS011;59082;50.658;4.608;2023-05-16T05:05:28;7.03;;;2.35;;
71296;SDS011;59082;50.658;4.608;2023-05-16T05:07:53;10.53;;;3.10;;
71296;SDS011;59082;50.658;4.608;2023-05-16T05:10:19;12.18;;;2.75;;
71296;SDS011;59082;50.658;4.608;2023-05-16T05:12:44;14.00;;;2.50;;
71296;SDS011;59082;50.658;4.608;2023-05-16T05:15:10;12.93;;;2.60;;
71296;SDS011;59082;50.658;4.608;2023-05-16T05:17:35;10.27;;;2.77;;
71296;SDS011;59082;50.658;4.608;2023-05-16T05:20:02;8.68;;;2.30;;
71296;SDS011;59082;50.658;4.608;2023-05-16T05:22:29;6.63;;;2.30;;
71296;SDS011;59082;50.658;4.608;2023-05-16T05:24:55;10.33;;;3.10;;
71296;SDS011;59082;50.658;4.608;2023-05-16T05:27:20;11.60;;;2.50;;
71296;SDS011;59082;50.658;4.608;2023-05-16T05:29:45;6.00;;;2.87;;
71296;SDS011;59082;50.658;4.608;2023-05-16T05:32:11;8.60;;;3.37;;
71296;SDS011;59082;50.658;4.608;2023-05-16T05:34:36;7.90;;;3.13;;
71296;SDS011;59082;50.658;4.608;2023-05-16T05:37:02;8.70;;;2.67;;
71296;SDS011;59082;50.658;4.608;2023-05-16T05:39:27;11.73;;;3.00;;
71296;SDS011;59082;50.658;4.608;2023-05-16T05:41:53;7.33;;;2.43;;
71296;SDS011;59082;50.658;4.608;2023-05-16T05:44:18;10.43;;;2.97;;
71296;SDS011;59082;50.658;4.608;2023-05-16T05:46:44;19.77;;;2.63;;
71296;SDS011;59082;50.658;4.608;2023-05-16T05:49:09;12.40;;;3.27;;
71296;SDS011;59082;50.658;4.608;2023-05-16T05:51:35;11.18;;;2.55;;
71296;SDS011;59082;50.658;4.608;2023-05-16T05:54:00;6.87;;;2.63;;
71296;SDS011;59082;50.658;4.608;2023-05-16T05:56:26;10.97;;;3.10;;
71296;SDS011;59082;50.658;4.608;2023-05-16T05:58:51;6.05;;;2.13;;
71296;SDS011;59082;50.658;4.608;2023-05-16T06:01:23;8.87;;;3.00;;
71296;SDS011;59082;50.658;4.608;2023-05-16T06:03:49;6.95;;;2.47;;
71296;SDS011;59082;50.658;4.608;2023-05-16T06:08:48;9.35;;;2.80;;
71296;SDS011;59082;50.658;4.608;2023-05-16T06:11:13;10.80;;;2.97;;
71296;SDS011;59082;50.658;4.608;2023-05-16T06:13:39;9.43;;;3.27;;
71296;SDS011;59082;50.658;4.608;2023-05-16T06:16:04;6.07;;;2.43;;
71296;SDS011;59082;50.658;4.608;2023-05-16T06:18:31;8.97;;;3.33;;
71296;SDS011;59082;50.658;4.608;2023-05-16T06:20:56;9.10;;;2.47;;
71296;SDS011;59082;50.658;4.608;2023-05-16T06:23:22;9.23;;;2.13;;
71296;SDS011;59082;50.658;4.608;2023-05-16T06:25:47;12.57;;;2.33;;
71296;SDS011;59082;50.658;4.608;2023-05-16T06:28:12;4.57;;;1.83;;
71296;SDS011;59082;50.658;4.608;2023-05-16T06:30:38;3.80;;;1.70;;
71296;SDS011;59082;50.658;4.608;2023-05-16T06:33:03;12.17;;;2.63;;
71296;SDS011;59082;50.658;4.608;2023-05-16T06:35:28;9.27;;;2.77;;
71296;SDS011;59082;50.658;4.608;2023-05-16T06:37:54;5.43;;;2.27;;
71296;SDS011;59082;50.658;4.608;2023-05-16T06:40:19;6.55;;;1.60;;
71296;SDS011;59082;50.658;4.608;2023-05-16T06:42:44;5.57;;;2.60;;
71296;SDS011;59082;50.658;4.608;2023-05-16T06:45:10;7.83;;;1.77;;
71296;SDS011;59082;50.658;4.608;2023-05-16T06:47:35;7.13;;;1.90;;
71296;SDS011;59082;50.658;4.608;2023-05-16T06:50:01;8.13;;;2.30;;
71296;SDS011;59082;50.658;4.608;2023-05-16T06:52:26;10.25;;;2.22;;
71296;SDS011;59082;50.658;4.608;2023-05-16T06:54:52;9.63;;;2.10;;
71296;SDS011;59082;50.658;4.608;2023-05-16T06:57:17;5.70;;;2.63;;
71296;SDS011;59082;50.658;4.608;2023-05-16T06:59:43;8.37;;;2.27;;
71296;SDS011;59082;50.658;4.608;2023-05-16T07:02:08;8.40;;;1.77;;
71296;SDS011;59082;50.658;4.608;2023-05-16T07:04:34;5.80;;;1.63;;
71296;SDS011;59082;50.658;4.608;2023-05-16T07:07:01;6.45;;;2.03;;
71296;SDS011;59082;50.658;4.608;2023-05-16T07:09:27;5.47;;;1.40;;
71296;SDS011;59082;50.658;4.608;2023-05-16T07:11:52;5.80;;;2.03;;
71296;SDS011;59082;50.658;4.608;2023-05-16T07:14:18;7.07;;;1.93;;
71296;SDS011;59082;50.658;4.608;2023-05-16T07:16:43;8.20;;;2.37;;
71296;SDS011;59082;50.658;4.608;2023-05-16T07:19:08;5.93;;;1.63;;
71296;SDS011;59082;50.658;4.608;2023-05-16T07:21:34;4.17;;;1.17;;
71296;SDS011;59082;50.658;4.608;2023-05-16T07:23:59;6.97;;;1.30;;
71296;SDS011;59082;50.658;4.608;2023-05-16T07:26:24;11.13;;;1.73;;
71296;SDS011;59082;50.658;4.608;2023-05-16T07:28:50;4.30;;;1.93;;
71296;SDS011;59082;50.658;4.608;2023-05-16T07:31:16;5.32;;;1.60;;
71296;SDS011;59082;50.658;4.608;2023-05-16T07:33:41;5.83;;;1.97;;
71296;SDS011;59082;50.658;4.608;2023-05-16T07:36:07;9.57;;;1.53;;
71296;SDS011;59082;50.658;4.608;2023-05-16T07:38:33;3.95;;;1.77;;
71296;SDS011;59082;50.658;4.608;2023-05-16T07:40:58;4.00;;;1.20;;
71296;SDS011;59082;50.658;4.608;2023-05-16T07:43:24;5.20;;;1.17;;
71296;SDS011;59082;50.658;4.608;2023-05-16T07:45:50;10.70;;;2.27;;
71296;SDS011;59082;50.658;4.608;2023-05-16T07:48:15;5.07;;;2.00;;
71296;SDS011;59082;50.658;4.608;2023-05-16T07:50:41;11.73;;;1.67;;
71296;SDS011;59082;50.658;4.608;2023-05-16T07:53:07;2.93;;;1.03;;
71296;SDS011;59082;50.658;4.608;2023-05-16T07:55:32;5.00;;;1.98;;
71296;SDS011;59082;50.658;4.608;2023-05-16T07:57:57;4.43;;;1.57;;
71296;SDS011;59082;50.658;4.608;2023-05-16T08:00:23;3.63;;;1.50;;
71296;SDS011;59082;50.658;4.608;2023-05-16T08:02:48;4.33;;;1.57;;
71296;SDS011;59082;50.658;4.608;2023-05-16T08:05:15;4.55;;;2.00;;
71296;SDS011;59082;50.658;4.608;2023-05-16T08:07:40;3.95;;;1.55;;
71296;SDS011;59082;50.658;4.608;2023-05-16T08:10:06;4.73;;;1.40;;
71296;SDS011;59082;50.658;4.608;2023-05-16T08:12:32;2.47;;;1.33;;
71296;SDS011;59082;50.658;4.608;2023-05-16T08:14:57;7.93;;;1.80;;
71296;SDS011;59082;50.658;4.608;2023-05-16T08:17:22;3.10;;;1.40;;
71296;SDS011;59082;50.658;4.608;2023-05-16T08:19:48;2.77;;;1.47;;
71296;SDS011;59082;50.658;4.608;2023-05-16T08:22:14;3.72;;;1.30;;
71296;SDS011;59082;50.658;4.608;2023-05-16T08:24:39;9.47;;;1.77;;
71296;SDS011;59082;50.658;4.608;2023-05-16T08:27:05;3.22;;;0.85;;
71296;SDS011;59082;50.658;4.608;2023-05-16T08:29:30;3.17;;;1.83;;
71296;SDS011;59082;50.658;4.608;2023-05-16T08:31:56;3.17;;;1.80;;
71296;SDS011;59082;50.658;4.608;2023-05-16T08:34:22;5.23;;;1.73;;
71296;SDS011;59082;50.658;4.608;2023-05-16T08:36:47;3.27;;;1.27;;
71296;SDS011;59082;50.658;4.608;2023-05-16T08:39:13;5.63;;;2.35;;
71296;SDS011;59082;50.658;4.608;2023-05-16T08:41:38;2.77;;;1.33;;
71296;SDS011;59082;50.658;4.608;2023-05-16T08:44:03;5.43;;;1.33;;
71296;SDS011;59082;50.658;4.608;2023-05-16T08:46:29;3.00;;;1.40;;
71296;SDS011;59082;50.658;4.608;2023-05-16T08:48:57;2.80;;;0.80;;
71296;SDS011;59082;50.658;4.608;2023-05-16T08:51:23;6.18;;;2.75;;
71296;SDS011;59082;50.658;4.608;2023-05-16T08:53:51;4.72;;;2.08;;
71296;SDS011;59082;50.658;4.608;2023-05-16T08:56:18;2.90;;;1.73;;
71296;SDS011;59082;50.658;4.608;2023-05-16T08:58:46;6.67;;;1.57;;
71296;SDS011;59082;50.658;4.608;2023-05-16T09:01:12;3.17;;;1.63;;
71296;SDS011;59082;50.658;4.608;2023-05-16T09:03:37;5.80;;;1.73;;
71296;SDS011;59082;50.658;4.608;2023-05-16T09:06:05;3.50;;;1.20;;
71296;SDS011;59082;50.658;4.608;2023-05-16T09:08:31;2.70;;;1.03;;
71296;SDS011;59082;50.658;4.608;2023-05-16T09:10:56;4.88;;;1.20;;
71296;SDS011;59082;50.658;4.608;2023-05-16T09:13:21;3.83;;;0.80;;
71296;SDS011;59082;50.658;4.608;2023-05-16T09:15:50;2.50;;;1.73;;
71296;SDS011;59082;50.658;4.608;2023-05-16T09:18:31;4.45;;;1.17;;
71296;SDS011;59082;50.658;4.608;2023-05-16T09:20:58;5.87;;;1.83;;
71296;SDS011;59082;50.658;4.608;2023-05-16T09:23:23;3.65;;;0.93;;
71296;SDS011;59082;50.658;4.608;2023-05-16T09:25:51;3.58;;;0.90;;
71296;SDS011;59082;50.658;4.608;2023-05-16T09:28:17;4.17;;;0.70;;
71296;SDS011;59082;50.658;4.608;2023-05-16T09:30:43;1.88;;;0.57;;
71296;SDS011;59082;50.658;4.608;2023-05-16T09:33:10;5.57;;;1.60;;
71296;SDS011;59082;50.658;4.608;2023-05-16T09:35:35;2.28;;;1.60;;
71296;SDS011;59082;50.658;4.608;2023-05-16T09:38:01;3.13;;;1.43;;
71296;SDS011;59082;50.658;4.608;2023-05-16T09:40:26;4.23;;;1.40;;
71296;SDS011;59082;50.658;4.608;2023-05-16T09:43:04;3.47;;;1.50;;
71296;SDS011;59082;50.658;4.608;2023-05-16T09:45:30;5.50;;;2.40;;
71296;SDS011;59082;50.658;4.608;2023-05-16T09:48:06;3.95;;;1.38;;
71296;SDS011;59082;50.658;4.608;2023-05-16T09:50:32;4.38;;;1.55;;
71296;SDS011;59082;50.658;4.608;2023-05-16T09:52:58;2.95;;;1.73;;
71296;SDS011;59082;50.658;4.608;2023-05-16T09:55:24;3.93;;;1.00;;
71296;SDS011;59082;50.658;4.608;2023-05-16T09:57:49;3.38;;;1.73;;
71296;SDS011;59082;50.658;4.608;2023-05-16T10:00:15;3.57;;;1.73;;
71296;SDS011;59082;50.658;4.608;2023-05-16T10:02:40;4.43;;;2.03;;
71296;SDS011;59082;50.658;4.608;2023-05-16T10:05:07;2.72;;;1.08;;
71296;SDS011;59082;50.658;4.608;2023-05-16T10:07:32;5.83;;;0.90;;
71296;SDS011;59082;50.658;4.608;2023-05-16T10:10:04;5.60;;;2.40;;
71296;SDS011;59082;50.658;4.608;2023-05-16T10:12:30;3.13;;;1.92;;
71296;SDS011;59082;50.658;4.608;2023-05-16T10:14:57;3.22;;;1.45;;
71296;SDS011;59082;50.658;4.608;2023-05-16T10:17:24;2.70;;;0.90;;
71296;SDS011;59082;50.658;4.608;2023-05-16T10:19:49;3.73;;;2.33;;
71296;SDS011;59082;50.658;4.608;2023-05-16T10:22:15;4.30;;;2.63;;
71296;SDS011;59082;50.658;4.608;2023-05-16T10:27:06;3.83;;;1.60;;
71296;SDS011;59082;50.658;4.608;2023-05-16T10:29:32;2.53;;;1.35;;
71296;SDS011;59082;50.658;4.608;2023-05-16T10:31:57;4.70;;;1.97;;
71296;SDS011;59082;50.658;4.608;2023-05-16T10:34:23;4.88;;;1.60;;
71296;SDS011;59082;50.658;4.608;2023-05-16T10:36:49;3.25;;;0.75;;
71296;SDS011;59082;50.658;4.608;2023-05-16T10:39:15;3.57;;;1.00;;
71296;SDS011;59082;50.658;4.608;2023-05-16T10:41:40;3.25;;;0.68;;
71296;SDS011;59082;50.658;4.608;2023-05-16T10:44:11;4.17;;;0.80;;
71296;SDS011;59082;50.658;4.608;2023-05-16T10:46:37;3.20;;;2.15;;
71296;SDS011;59082;50.658;4.608;2023-05-16T10:49:18;4.43;;;2.40;;
71296;SDS011;59082;50.658;4.608;2023-05-16T10:51:43;3.60;;;1.55;;
71296;SDS011;59082;50.658;4.608;2023-05-16T10:54:09;2.60;;;1.60;;
71296;SDS011;59082;50.658;4.608;2023-05-16T10:56:36;2.30;;;1.63;;
71296;SDS011;59082;50.658;4.608;2023-05-16T10:59:02;4.43;;;1.73;;
71296;SDS011;59082;50.658;4.608;2023-05-16T11:01:29;2.22;;;1.10;;
71296;SDS011;59082;50.658;4.608;2023-05-16T11:06:24;3.37;;;0.77;;
71296;SDS011;59082;50.658;4.608;2023-05-16T11:09:06;2.90;;;0.50;;
71296;SDS011;59082;50.658;4.608;2023-05-16T11:14:25;2.20;;;0.47;;
71296;SDS011;59082;50.658;4.608;2023-05-16T11:16:51;3.90;;;0.88;;
71296;SDS011;59082;50.658;4.608;2023-05-16T11:19:31;7.40;;;1.15;;
71296;SDS011;59082;50.658;4.608;2023-05-16T11:22:10;2.92;;;2.47;;
71296;SDS011;59082;50.658;4.608;2023-05-16T11:25:14;2.60;;;2.15;;
71296;SDS011;59082;50.658;4.608;2023-05-16T11:27:42;2.07;;;1.90;;
71296;SDS011;59082;50.658;4.608;2023-05-16T11:30:12;5.32;;;2.78;;
71296;SDS011;59082;50.658;4.608;2023-05-16T11:32:38;4.40;;;1.33;;
71296;SDS011;59082;50.658;4.608;2023-05-16T11:35:05;2.85;;;0.68;;
71296;SDS011;59082;50.658;4.608;2023-05-16T11:37:31;2.92;;;1.50;;
71296;SDS011;59082;50.658;4.608;2023-05-16T11:40:00;3.80;;;1.10;;
71296;SDS011;59082;50.658;4.608;2023-05-16T11:42:29;3.90;;;0.77;;
71296;SDS011;59082;50.658;4.608;2023-05-16T11:45:08;3.70;;;0.67;;
71296;SDS011;59082;50.658;4.608;2023-05-16T11:47:37;2.65;;;0.47;;
71296;SDS011;59082;50.658;4.608;2023-05-16T11:50:04;3.55;;;2.20;;
71296;SDS011;59082;50.658;4.608;2023-05-16T11:52:30;3.00;;;1.58;;
71296;SDS011;59082;50.658;4.608;2023-05-16T11:54:57;2.78;;;2.15;;
71296;SDS011;59082;50.658;4.608;2023-05-16T11:57:25;4.40;;;0.80;;
71296;SDS011;59082;50.658;4.608;2023-05-16T11:59:51;2.75;;;1.90;;
71296;SDS011;59082;50.658;4.608;2023-05-16T12:02:17;2.15;;;0.73;;
71296;SDS011;59082;50.658;4.608;2023-05-16T12:04:45;4.57;;;2.20;;
71296;SDS011;59082;50.658;4.608;2023-05-16T12:07:10;3.65;;;1.73;;
71296;SDS011;59082;50.658;4.608;2023-05-16T12:09:36;3.63;;;1.77;;
71296;SDS011;59082;50.658;4.608;2023-05-16T12:12:02;4.10;;;1.90;;
71296;SDS011;59082;50.658;4.608;2023-05-16T12:14:28;3.17;;;1.33;;
71296;SDS011;59082;50.658;4.608;2023-05-16T12:16:54;3.63;;;2.07;;
71296;SDS011;59082;50.658;4.608;2023-05-16T12:19:20;3.03;;;0.80;;
71296;SDS011;59082;50.658;4.608;2023-05-16T12:21:45;2.75;;;0.70;;
71296;SDS011;59082;50.658;4.608;2023-05-16T12:24:11;3.37;;;0.47;;
71296;SDS011;59082;50.658;4.608;2023-05-16T12:26:40;2.45;;;0.50;;
71296;SDS011;59082;50.658;4.608;2023-05-16T12:29:06;5.53;;;0.98;;
71296;SDS011;59082;50.658;4.608;2023-05-16T12:31:34;3.73;;;1.90;;
71296;SDS011;59082;50.658;4.608;2023-05-16T12:34:00;6.53;;;2.03;;
71296;SDS011;59082;50.658;4.608;2023-05-16T12:36:29;2.77;;;1.20;;
71296;SDS011;59082;50.658;4.608;2023-05-16T12:38:58;6.28;;;2.17;;
71296;SDS011;59082;50.658;4.608;2023-05-16T12:41:24;4.07;;;2.47;;
71296;SDS011;59082;50.658;4.608;2023-05-16T12:43:49;4.97;;;2.43;;
71296;SDS011;59082;50.658;4.608;2023-05-16T12:46:15;5.03;;;1.93;;
71296;SDS011;59082;50.658;4.608;2023-05-16T12:48:41;4.15;;;0.73;;
71296;SDS011;59082;50.658;4.608;2023-05-16T12:51:13;2.15;;;0.85;;
71296;SDS011;59082;50.658;4.608;2023-05-16T12:53:57;3.67;;;1.50;;
71296;SDS011;59082;50.658;4.608;2023-05-16T12:56:27;5.43;;;1.55;;
71296;SDS011;59082;50.658;4.608;2023-05-16T12:58:53;2.07;;;0.77;;
71296;SDS011;59082;50.658;4.608;2023-05-16T13:01:18;3.67;;;0.70;;
71296;SDS011;59082;50.658;4.608;2023-05-16T13:03:43;3.33;;;0.40;;
71296;SDS011;59082;50.658;4.608;2023-05-16T13:06:08;4.40;;;0.90;;
71296;SDS011;59082;50.658;4.608;2023-05-16T13:08:34;8.97;;;1.93;;
71296;SDS011;59082;50.658;4.608;2023-05-16T13:10:59;2.27;;;1.20;;
71296;SDS011;59082;50.658;4.608;2023-05-16T13:13:25;4.03;;;0.80;;
71296;SDS011;59082;50.658;4.608;2023-05-16T13:15:50;3.70;;;1.03;;
71296;SDS011;59082;50.658;4.608;2023-05-16T13:18:16;4.97;;;1.63;;
71296;SDS011;59082;50.658;4.608;2023-05-16T13:20:41;4.33;;;0.93;;
71296;SDS011;59082;50.658;4.608;2023-05-16T13:23:07;4.50;;;2.00;;
71296;SDS011;59082;50.658;4.608;2023-05-16T13:25:32;2.13;;;1.43;;
71296;SDS011;59082;50.658;4.608;2023-05-16T13:27:58;4.13;;;1.60;;
71296;SDS011;59082;50.658;4.608;2023-05-16T13:30:23;5.10;;;1.40;;
71296;SDS011;59082;50.658;4.608;2023-05-16T13:32:49;4.43;;;0.80;;
71296;SDS011;59082;50.658;4.608;2023-05-16T13:35:16;3.38;;;0.82;;
71296;SDS011;59082;50.658;4.608;2023-05-16T13:37:41;3.60;;;1.00;;
71296;SDS011;59082;50.658;4.608;2023-05-16T13:40:07;3.07;;;0.93;;
71296;SDS011;59082;50.658;4.608;2023-05-16T13:42:35;3.30;;;1.00;;
71296;SDS011;59082;50.658;4.608;2023-05-16T13:45:01;5.43;;;2.05;;
71296;SDS011;59082;50.658;4.608;2023-05-16T13:47:27;2.37;;;1.50;;
71296;SDS011;59082;50.658;4.608;2023-05-16T13:49:52;2.42;;;1.70;;
71296;SDS011;59082;50.658;4.608;2023-05-16T13:52:18;3.60;;;0.83;;
71296;SDS011;59082;50.658;4.608;2023-05-16T13:54:43;1.60;;;0.73;;
71296;SDS011;59082;50.658;4.608;2023-05-16T13:57:09;3.63;;;1.67;;
71296;SDS011;59082;50.658;4.608;2023-05-16T13:59:34;4.10;;;1.20;;
71296;SDS011;59082;50.658;4.608;2023-05-16T14:02:00;3.90;;;1.30;;
71296;SDS011;59082;50.658;4.608;2023-05-16T14:04:26;4.30;;;1.00;;
71296;SDS011;59082;50.658;4.608;2023-05-16T14:06:51;2.63;;;1.57;;
71296;SDS011;59082;50.658;4.608;2023-05-16T14:09:16;3.47;;;1.30;;
71296;SDS011;59082;50.658;4.608;2023-05-16T14:11:42;3.25;;;0.93;;
71296;SDS011;59082;50.658;4.608;2023-05-16T14:14:08;2.07;;;0.87;;
71296;SDS011;59082;50.658;4.608;2023-05-16T14:16:33;3.87;;;0.83;;
71296;SDS011;59082;50.658;4.608;2023-05-16T14:18:58;4.13;;;1.13;;
71296;SDS011;59082;50.658;4.608;2023-05-16T14:21:24;3.63;;;1.30;;
71296;SDS011;59082;50.658;4.608;2023-05-16T14:23:50;3.85;;;0.80;;
71296;SDS011;59082;50.658;4.608;2023-05-16T14:26:16;3.57;;;0.60;;
71296;SDS011;59082;50.658;4.608;2023-05-16T14:28:42;4.88;;;0.82;;
71296;SDS011;59082;50.658;4.608;2023-05-16T14:31:07;2.67;;;1.03;;
71296;SDS011;59082;50.658;4.608;2023-05-16T14:33:32;4.73;;;1.70;;
71296;SDS011;59082;50.658;4.608;2023-05-16T14:35:58;2.07;;;0.90;;
71296;SDS011;59082;50.658;4.608;2023-05-16T14:38:23;1.97;;;0.83;;
71296;SDS011;59082;50.658;4.608;2023-05-16T14:40:49;3.83;;;1.07;;
71296;SDS011;59082;50.658;4.608;2023-05-16T14:43:14;2.60;;;1.80;;
71296;SDS011;59082;50.658;4.608;2023-05-16T14:45:40;3.55;;;1.73;;
71296;SDS011;59082;50.658;4.608;2023-05-16T14:48:07;5.72;;;1.85;;
71296;SDS011;59082;50.658;4.608;2023-05-16T14:50:32;3.67;;;1.93;;
71296;SDS011;59082;50.658;4.608;2023-05-16T14:52:58;2.67;;;1.60;;
71296;SDS011;59082;50.658;4.608;2023-05-16T14:55:23;3.60;;;2.27;;
71296;SDS011;59082;50.658;4.608;2023-05-16T14:57:48;2.33;;;1.43;;
71296;SDS011;59082;50.658;4.608;2023-05-16T15:00:14;3.17;;;0.98;;
71296;SDS011;59082;50.658;4.608;2023-05-16T15:02:39;1.53;;;0.80;;
71296;SDS011;59082;50.658;4.608;2023-05-16T15:05:05;3.73;;;1.60;;
71296;SDS011;59082;50.658;4.608;2023-05-16T15:07:30;5.28;;;1.17;;
71296;SDS011;59082;50.658;4.608;2023-05-16T15:09:56;4.73;;;1.73;;
71296;SDS011;59082;50.658;4.608;2023-05-16T15:12:21;5.27;;;1.20;;
71296;SDS011;59082;50.658;4.608;2023-05-16T15:14:47;2.30;;;0.70;;
71296;SDS011;59082;50.658;4.608;2023-05-16T15:17:12;3.47;;;0.83;;
71296;SDS011;59082;50.658;4.608;2023-05-16T15:19:37;3.78;;;1.02;;
71296;SDS011;59082;50.658;4.608;2023-05-16T15:22:03;4.63;;;1.10;;
71296;SDS011;59082;50.658;4.608;2023-05-16T15:24:31;3.17;;;0.90;;
71296;SDS011;59082;50.658;4.608;2023-05-16T15:26:57;2.33;;;1.10;;
71296;SDS011;59082;50.658;4.608;2023-05-16T15:29:22;3.17;;;1.70;;
71296;SDS011;59082;50.658;4.608;2023-05-16T15:31:47;2.10;;;0.80;;
71296;SDS011;59082;50.658;4.608;2023-05-16T15:34:13;2.90;;;1.60;;
71296;SDS011;59082;50.658;4.608;2023-05-16T15:36:38;2.30;;;0.80;;
71296;SDS011;59082;50.658;4.608;2023-05-16T15:39:04;2.60;;;0.98;;
71296;SDS011;59082;50.658;4.608;2023-05-16T15:41:29;3.13;;;1.20;;
71296;SDS011;59082;50.658;4.608;2023-05-16T15:43:55;2.95;;;1.17;;
71296;SDS011;59082;50.658;4.608;2023-05-16T15:46:20;4.20;;;0.60;;
71296;SDS011;59082;50.658;4.608;2023-05-16T15:48:45;4.60;;;0.57;;
71296;SDS011;59082;50.658;4.608;2023-05-16T15:51:11;2.40;;;1.00;;
71296;SDS011;59082;50.658;4.608;2023-05-16T15:53:40;3.47;;;0.77;;
71296;SDS011;59082;50.658;4.608;2023-05-16T15:56:06;3.93;;;1.90;;
71296;SDS011;59082;50.658;4.608;2023-05-16T15:58:32;2.17;;;1.60;;
71296;SDS011;59082;50.658;4.608;2023-05-16T16:00:57;3.53;;;1.40;;
71296;SDS011;59082;50.658;4.608;2023-05-16T16:03:22;3.63;;;1.63;;
71296;SDS011;59082;50.658;4.608;2023-05-16T16:05:48;2.13;;;0.53;;
71296;SDS011;59082;50.658;4.608;2023-05-16T16:08:13;4.30;;;1.03;;
71296;SDS011;59082;50.658;4.608;2023-05-16T16:10:39;1.90;;;0.53;;
71296;SDS011;59082;50.658;4.608;2023-05-16T16:13:05;1.50;;;0.70;;
71296;SDS011;59082;50.658;4.608;2023-05-16T16:15:31;2.27;;;0.50;;
71296;SDS011;59082;50.658;4.608;2023-05-16T16:17:56;2.80;;;0.38;;
71296;SDS011;59082;50.658;4.608;2023-05-16T16:20:22;3.10;;;0.87;;
71296;SDS011;59082;50.658;4.608;2023-05-16T16:22:47;2.25;;;1.02;;
71296;SDS011;59082;50.658;4.608;2023-05-16T16:25:13;3.07;;;0.90;;
71296;SDS011;59082;50.658;4.608;2023-05-16T16:27:39;2.67;;;0.70;;
71296;SDS011;59082;50.658;4.608;2023-05-16T16:30:04;3.73;;;1.10;;
71296;SDS011;59082;50.658;4.608;2023-05-16T16:32:30;2.07;;;0.30;;
71296;SDS011;59082;50.658;4.608;2023-05-16T16:34:55;3.83;;;0.60;;
71296;SDS011;59082;50.658;4.608;2023-05-16T16:37:21;1.83;;;0.60;;
71296;SDS011;59082;50.658;4.608;2023-05-16T16:39:46;2.37;;;1.20;;
71296;SDS011;59082;50.658;4.608;2023-05-16T16:42:11;2.33;;;1.33;;
71296;SDS011;59082;50.658;4.608;2023-05-16T16:44:37;3.23;;;0.57;;
71296;SDS011;59082;50.658;4.608;2023-05-16T16:47:02;2.42;;;0.82;;
71296;SDS011;59082;50.658;4.608;2023-05-16T16:49:28;2.70;;;0.60;;
71296;SDS011;59082;50.658;4.608;2023-05-16T16:51:55;2.78;;;0.47;;
71296;SDS011;59082;50.658;4.608;2023-05-16T16:54:22;1.63;;;0.70;;
71296;SDS011;59082;50.658;4.608;2023-05-16T16:56:47;3.15;;;0.63;;
71296;SDS011;59082;50.658;4.608;2023-05-16T16:59:13;3.30;;;1.05;;
71296;SDS011;59082;50.658;4.608;2023-05-16T17:01:39;5.50;;;0.80;;
71296;SDS011;59082;50.658;4.608;2023-05-16T17:04:05;2.90;;;0.60;;
71296;SDS011;59082;50.658;4.608;2023-05-16T17:06:30;3.73;;;0.77;;
71296;SDS011;59082;50.658;4.608;2023-05-16T17:08:56;6.30;;;1.40;;
71296;SDS011;59082;50.658;4.608;2023-05-16T17:11:21;2.40;;;1.33;;
71296;SDS011;59082;50.658;4.608;2023-05-16T17:13:47;3.27;;;0.70;;
71296;SDS011;59082;50.658;4.608;2023-05-16T17:16:14;4.43;;;0.75;;
71296;SDS011;59082;50.658;4.608;2023-05-16T17:18:40;4.00;;;1.27;;
71296;SDS011;59082;50.658;4.608;2023-05-16T17:21:06;4.50;;;1.23;;
71296;SDS011;59082;50.658;4.608;2023-05-16T17:23:33;5.93;;;3.08;;
71296;SDS011;59082;50.658;4.608;2023-05-16T17:25:58;2.63;;;1.63;;
71296;SDS011;59082;50.658;4.608;2023-05-16T17:28:25;2.40;;;0.50;;
71296;SDS011;59082;50.658;4.608;2023-05-16T17:30:50;2.53;;;0.77;;
71296;SDS011;59082;50.658;4.608;2023-05-16T17:33:15;1.93;;;0.37;;
71296;SDS011;59082;50.658;4.608;2023-05-16T17:35:41;1.33;;;0.50;;
71296;SDS011;59082;50.658;4.608;2023-05-16T17:38:07;1.20;;;0.90;;
71296;SDS011;59082;50.658;4.608;2023-05-16T17:40:34;3.05;;;0.88;;
71296;SDS011;59082;50.658;4.608;2023-05-16T17:42:59;1.93;;;0.80;;
71296;SDS011;59082;50.658;4.608;2023-05-16T17:45:25;3.53;;;0.63;;
71296;SDS011;59082;50.658;4.608;2023-05-16T17:47:50;2.67;;;1.03;;
71296;SDS011;59082;50.658;4.608;2023-05-16T17:50:16;3.93;;;0.67;;
71296;SDS011;59082;50.658;4.608;2023-05-16T17:52:42;3.13;;;0.73;;
71296;SDS011;59082;50.658;4.608;2023-05-16T17:55:09;5.30;;;0.75;;
71296;SDS011;59082;50.658;4.608;2023-05-16T17:57:34;3.33;;;0.80;;
71296;SDS011;59082;50.658;4.608;2023-05-16T18:00:00;1.50;;;0.77;;
71296;SDS011;59082;50.658;4.608;2023-05-16T18:02:25;4.13;;;1.90;;
71296;SDS011;59082;50.658;4.608;2023-05-16T18:04:51;2.30;;;0.83;;
71296;SDS011;59082;50.658;4.608;2023-05-16T18:07:17;2.30;;;0.80;;
71296;SDS011;59082;50.658;4.608;2023-05-16T18:09:42;4.87;;;1.33;;
71296;SDS011;59082;50.658;4.608;2023-05-16T18:12:08;2.17;;;0.85;;
71296;SDS011;59082;50.658;4.608;2023-05-16T18:14:34;2.03;;;1.27;;
71296;SDS011;59082;50.658;4.608;2023-05-16T18:17:00;2.40;;;1.10;;
71296;SDS011;59082;50.658;4.608;2023-05-16T18:19:25;2.30;;;1.43;;
71296;SDS011;59082;50.658;4.608;2023-05-16T18:21:51;1.75;;;1.27;;
71296;SDS011;59082;50.658;4.608;2023-05-16T18:24:17;1.80;;;1.20;;
71296;SDS011;59082;50.658;4.608;2023-05-16T18:26:42;1.27;;;0.67;;
71296;SDS011;59082;50.658;4.608;2023-05-16T18:29:10;2.33;;;0.70;;
71296;SDS011;59082;50.658;4.608;2023-05-16T18:31:37;2.65;;;1.15;;
71296;SDS011;59082;50.658;4.608;2023-05-16T18:34:04;3.33;;;1.20;;
71296;SDS011;59082;50.658;4.608;2023-05-16T18:36:30;3.30;;;1.17;;
71296;SDS011;59082;50.658;4.608;2023-05-16T18:38:55;3.27;;;0.73;;
71296;SDS011;59082;50.658;4.608;2023-05-16T18:41:21;1.73;;;0.95;;
71296;SDS011;59082;50.658;4.608;2023-05-16T18:43:46;2.93;;;1.70;;
71296;SDS011;59082;50.658;4.608;2023-05-16T18:46:11;4.83;;;0.83;;
71296;SDS011;59082;50.658;4.608;2023-05-16T18:48:37;1.03;;;0.80;;
71296;SDS011;59082;50.658;4.608;2023-05-16T18:51:02;3.47;;;0.75;;
71296;SDS011;59082;50.658;4.608;2023-05-16T18:53:28;3.43;;;0.90;;
71296;SDS011;59082;50.658;4.608;2023-05-16T18:55:53;1.50;;;1.40;;
71296;SDS011;59082;50.658;4.608;2023-05-16T18:58:18;2.17;;;0.90;;
71296;SDS011;59082;50.658;4.608;2023-05-16T19:00:44;1.57;;;1.10;;
71296;SDS011;59082;50.658;4.608;2023-05-16T19:03:09;2.78;;;0.52;;
71296;SDS011;59082;50.658;4.608;2023-05-16T19:05:35;2.50;;;0.93;;
71296;SDS011;59082;50.658;4.608;2023-05-16T19:08:00;1.37;;;1.23;;
71296;SDS011;59082;50.658;4.608;2023-05-16T19:10:26;1.55;;;1.27;;
71296;SDS011;59082;50.658;4.608;2023-05-16T19:12:51;3.43;;;1.30;;
71296;SDS011;59082;50.658;4.608;2023-05-16T19:15:16;1.97;;;0.87;;
71296;SDS011;59082;50.658;4.608;2023-05-16T19:17:42;3.03;;;1.07;;
71296;SDS011;59082;50.658;4.608;2023-05-16T19:20:07;1.73;;;1.30;;
71296;SDS011;59082;50.658;4.608;2023-05-16T19:22:35;3.90;;;1.40;;
71296;SDS011;59082;50.658;4.608;2023-05-16T19:25:01;2.28;;;1.35;;
71296;SDS011;59082;50.658;4.608;2023-05-16T19:27:27;2.60;;;0.63;;